Terminal Aerodrome Forecast
Issued by NWS Wichita, KS

Home | Current Version | Previous Version | Text Only | Print | Product List | Glossary On
Versions: 1 2 3 4 5 6 7 8 9 10 11 12 13 14 15 16
000
FTUS43 KICT 192300
TAFICT
TAF
KICT 192332Z 2000/2024 16009KT P6SM FEW050
     FM201000 17011KT P6SM FEW009 SCT015
      TEMPO 2011/2015 4SM BR SCT009 BKN015
     FM201500 17015G23KT P6SM SCT050=

USA.gov is the U.S. government's official web portal to all federal, state and local government web resources and services.